Weather observations for the past three days for
Hatteras, Mitchell Field
Metric (Imperial)
Date Time (edt) Wind (kph) Vis. (km) Weather Sky Cond. Temperature (ºC) Relative Humidity Wind Chill (°C) Heat Index (°C) Pressure Precipitation (cm)
Air Dwpt 6 hour altimeter (cm) sea level (mb) 1 hr 3 hr 6 hr
Max. Min.
04 19:51 SW 19 G 35 16.09 Fair CLR 28.3 25.6 31.1 28.3 85% 34 75.97 1012.9
04 18:51 SW 20 G 39 16.09 Fair CLR 28.3 25.6 85% 34 76.02 1013.5
04 17:51 SW 19 G 37 16.09 Fair CLR 29.4 25.6 80% 36 76 1013.2
04 16:51 SW 20 G 43 16.09 Fair CLR 30 25.6 77% 37 75.97 1012.9
04 15:51 SW 24 G 43 16.09 Fair CLR 30.6 26.1 77% 39 76.05 1013.6
04 14:51 SW 24 G 46 16.09 Fair CLR 30.6 25.6 75% 38 76.12 1014.7
04 13:51 SW 22 G 41 16.09 Fair CLR 30.6 25.6 31.1 27.8 75% 38 76.17 1015.4
04 12:51 SW 20 G 37 16.09 Fair CLR 30.6 25.6 75% 38 76.2 1015.9
04 11:51 SW 19 G 31 16.09 A Few Clouds FEW018 30 26.1 80% 38 76.23 1016.2
04 10:51 W 15 G 30 16.09 A Few Clouds FEW015 30.6 25.6 75% 38 76.25 1016.3
04 09:51 W 17 G 35 16.09 A Few Clouds FEW014 30 25 75% 36 76.2 1015.8
04 08:51 W 13 G 26 16.09 A Few Clouds FEW013 28.9 25.6 82% 35 76.2 1015.9
04 07:51 SW 11 16.09 Fair CLR 27.8 25.6 27.8 26.7 88% 33 76.23 1016.1
04 06:51 W 11 16.09 A Few Clouds FEW013 26.7 25.6 94% 30 76.2 1015.7
04 05:51 W 11 16.09 Fair CLR 26.7 25 90% 30 76.17 1015.6
04 04:51 Vrbl 11 14.48 Fair CLR 27.2 25.6 91% 31 76.17 1015.6
04 03:51 W 13 G 26 16.09 Fair CLR 27.2 25.6 91% 31 76.2 1015.7
04 02:51 SW 17 G 35 16.09 Fair CLR 27.8 25.6 88% 33 76.17 1015.5
04 01:51 SW 15 G 30 16.09 Fair CLR 27.8 25.6 28.3 27.8 88% 33 76.23 1016.1
04 00:51 SW 19 G 31 16.09 Fair CLR 27.8 25.6 88% 33 76.25 1016.6
03 23:51 SW 17 G 33 16.09 Fair CLR 27.8 25 85% 32 76.28 1016.9
03 22:51 SW 15 G 30 16.09 Fair CLR 27.8 25.6 88% 33 76.3 1017.2
03 21:51 SW 15 G 26 16.09 Fair CLR 27.8 25.6 88% 33 76.33 1017.4
03 20:51 SW 17 16.09 Fair CLR 28.3 25.6 85% 34 76.25 1016.4
03 19:51 SW 13 G 30 16.09 Fair CLR 28.3 25.6 31.1 28.3 85% 34 76.2 1015.8
03 18:51 SW 17 16.09 Fair CLR 28.9 25.6 82% 35 76.2 1015.9
03 17:51 SW 15 16.09 Fair CLR 30 25.6 77% 37 76.23 1016.2
03 16:51 SW 15 G 31 16.09 Fair CLR 30.6 25.6 75% 38 76.23 1016.1
03 15:51 SW 13 G 30 16.09 Fair CLR 31.1 24.4 68% 37 76.23 1016.3
03 14:51 SW 19 16.09 Fair CLR 30.6 25 72% 37 76.3 1017.1
03 13:51 SW 17 16.09 Fair CLR 31.1 26.1 31.1 27.2 75% 39 76.33 1017.6
03 12:51 SW 13 16.09 Fair CLR 30.6 25.6 75% 38 76.38 1018.2
03 11:51 SW 13 16.09 Fair CLR 30.6 25.6 75% 38 76.4 1018.5
03 10:51 SW 11 16.09 Fair CLR 30 25.6 77% 37 76.4 1018.5
03 09:51 SW 11 16.09 Fair CLR 28.9 25.6 82% 35 76.38 1018.1
03 08:51 SW 13 16.09 Fair CLR 28.3 25.6 85% 34 76.4 1018.4
03 07:51 SW 7 16.09 Fair CLR 27.2 25.6 27.2 26.7 91% 31 76.38 1018.1
03 06:51 SW 6 16.09 Fair CLR 26.7 25.6 94% 30 76.33 1017.6
03 05:51 SW 7 16.09 Fair CLR 26.7 25.6 94% 30 76.3 1017.2
03 04:51 W 6 16.09 Fair CLR 26.7 25.6 94% 30 76.3 1017.1
03 03:51 Calm 14.48 Fair CLR 26.7 25.6 94% 30 76.28 1016.7
03 02:51 W 6 14.48 Fair CLR 27.2 25 88% 31 76.28 1016.7
03 01:51 Vrbl 7 16.09 Fair CLR 27.2 25.6 28.3 27.2 91% 31 76.3 1017.0
03 00:51 SW 7 16.09 Fair CLR 27.2 26.1 94% 32 76.28 1016.9
02 23:51 W 6 16.09 Fair CLR 27.8 25.6 88% 33 76.3 1017.2
02 22:51 SW 9 16.09 Fair CLR 27.8 25.6 88% 33 76.3 1017.2
02 21:51 SW 11 16.09 Fair CLR 27.8 25 85% 32 76.28 1017.0
02 20:51 SW 13 16.09 Fair CLR 28.3 25 82% 33 76.28 1016.8
02 19:51 SW 11 16.09 Fair CLR 28.3 25.6 31.1 28.3 85% 34 76.3 1017.1
02 18:51 SW 7 16.09 Fair CLR 28.9 25 80% 34 76.3 1017.2
02 17:51 SW 11 16.09 Fair CLR 29.4 25 77% 35 76.3 1017.3
02 16:51 S 13 16.09 Fair CLR 30.6 24.4 70% 36 76.25 1016.6
02 15:51 SW 15 16.09 Fair CLR 30.6 25 72% 37 76.3 1017.1
02 14:51 SW 15 16.09 Fair CLR 30.6 26.1 77% 39 76.33 1017.4
02 13:51 SW 13 16.09 Fair CLR 31.1 25.6 32.2 27.8 73% 39 76.35 1017.8
02 12:51 SW 15 16.09 Fair CLR 30.6 25.6 75% 38 76.35 1017.9
02 11:51 SW 9 16.09 Fair CLR 30.6 24.4 70% 36 76.35 1017.9
02 10:51 Vrbl 9 16.09 Fair CLR 30.6 23.3 65% 35 76.35 1018.0
02 09:51 SW 15 16.09 Fair CLR 28.9 25 80% 34 76.33 1017.6
02 08:51 Vrbl 9 16.09 Fair CLR 28.3 25.6 85% 34 76.35 1017.7
02 07:51 Vrbl 6 8.05 Fog/Mist CLR 27.8 25.6 27.8 26.7 88% 33 76.35 1017.9
02 06:51 Vrbl 7 9.66 Fog/Mist CLR 26.7 25 90% 30 76.33 1017.5
02 05:51 Vrbl 9 14.48 Fair CLR 26.7 25 90% 30 76.33 1017.4
02 04:51 W 9 16.09 Fair CLR 26.7 25 90% 30 76.3 1017.3
02 03:51 W 9 16.09 Fair CLR 27.2 25 88% 31 76.3 1017.1
02 02:51 Vrbl 7 16.09 Fair CLR 27.2 25 88% 31 76.35 1017.7
02 01:51 W 11 16.09 Fair CLR 27.8 24.4 28.3 27.8 82% 32 76.35 1017.8
02 00:51 Vrbl 7 16.09 Fair CLR 27.8 23.9 79% 32 76.35 1017.7
01 23:51 SW 11 16.09 Fair CLR 27.8 23.9 79% 32 76.3 1017.3
01 22:51 SW 13 16.09 Fair CLR 27.8 23.9 79% 32 76.28 1016.9
01 20:51 SW 13 16.09 Fair CLR 28.3 23.9 77% 32 76.28 1016.7
Date Time (edt) Wind (kph) Vis. (km) Weather Sky Cond. Air Dwpt Max. Min. Relative Humidity Wind Chill (°C) Heat Index (°C) altimeter (cm) sea level (mb) 1 hr 3 hr 6 hr
6 hour
Temperature (ºC) Pressure Precipitation (cm)